Flight Track Log - Related Links

Times and Time Zones

All times are in EDT time to prevent confusion due to time zone crossing. See the EGF3676 flight status page for this flight to view local times or setup timezone preferences in your user account.

Time Position Orientation Groundspeed Altitude Reporting Facility
EDT Latitude Longitude Course Direction KTS MPH feet Rate Location/Type
Sun 05:41:22 PM 39.8333 -104.8000 248° West 225 259 7,800  Level Denver TRACON
Sun 05:42:00 PM 39.7630 -104.9296 250° West  Level FlightAware Approximate
Sun 05:42:28 PM 39.8000 -104.9000 247° West 282 325 10,100  Level Denver TRACON
Sun 05:43:00 PM 39.7234 -105.0632 247° West  Level FlightAware Approximate
Sun 05:43:05 PM 39.7853 -104.9575 252° West 283 326 11,700  Level Denver Center
Sun 05:44:00 PM 39.6796 -105.1945 247° West  Level FlightAware Approximate
Sun 05:44:07 PM 39.7544 -105.0597 249° West 306 352 13,300  Level Denver Center
Sun 05:45:00 PM 39.6413 -105.3285 248° West  Level FlightAware Approximate
Sun 05:45:09 PM 39.7106 -105.1819 245° Southwest 344 396 15,500  Level Denver Center
Sun 05:46:00 PM 39.6004 -105.4613 248° West  Level FlightAware Approximate
Sun 05:46:11 PM 39.6697 -105.2967 245° Southwest 349 402 17,900  Level Denver Center
Sun 05:47:25 PM 39.6183 -105.4403 245° Southwest 359 413 20,400 1,985 Climbing Denver Center
Sun 05:48:27 PM 39.5739 -105.5581 244° Southwest 367 422 22,400 1,597 Climbing Denver Center
Sun 05:49:29 PM 39.5303 -105.6922 247° West 379 436 23,700 1,210 Climbing Denver Center
Sun 05:50:31 PM 39.4917 -105.8308 250° West 388 447 24,900 1,122 Climbing Denver Center
Sun 05:51:32 PM 39.4550 -105.9714 251° West 406 467 26,000 1,220 Climbing Denver Center
Sun 05:52:34 PM 39.4144 -106.1164 250° West 422 486 27,400 1,355 Climbing Denver Center
Sun 05:53:36 PM 39.3758 -106.2500 250° West 420 483 28,800 1,403 Climbing Denver Center
Sun 05:54:38 PM 39.3314 -106.4069 250° West 417 480 30,300 1,210 Climbing Denver Center
Sun 05:55:40 PM 39.2936 -106.5419 250° West 417 480 31,300 1,016 Climbing Denver Center
Sun 05:56:42 PM 39.2475 -106.7000 249° West 421 484 32,400 823 Climbing Denver Center
Sun 05:57:44 PM 39.1778 -106.8211 233° Southwest 435 501 33,000 683 Climbing Denver Center
Sun 05:58:45 PM 39.0922 -106.9592 231° Southwest 441 507 33,800 488 Climbing Denver Center
Sun 05:59:47 PM 39.0167 -107.0778 231° Southwest 444 511 34,000 97 Climbing Denver Center
Sun 06:00:49 PM 38.9406 -107.1981 231° Southwest 450 518 34,000  Level Denver Center
Sun 06:01:51 PM 38.8500 -107.3411 231° Southwest 457 526 34,000  Level Denver Center
Sun 06:02:53 PM 38.7714 -107.4636 231° Southwest 461 531 34,000  Level Denver Center
Sun 06:03:55 PM 38.6800 -107.6058 231° Southwest 462 532 34,000  Level Denver Center
Sun 06:04:57 PM 38.6025 -107.7253 230° Southwest 458 527 34,000  Level Denver Center
Sun 06:05:58 PM 38.5133 -107.8647 231° Southwest 454 522 34,000  Level Denver Center
Sun 06:07:00 PM 38.4364 -107.9819 230° Southwest 451 519 34,000  Level Denver Center
Sun 06:08:02 PM 38.3589 -108.1014 230° Southwest 454 522 34,000  Level Denver Center
Sun 06:09:04 PM 38.2689 -108.2392 230° Southwest 453 521 34,000  Level Denver Center
Sun 06:10:06 PM 38.1917 -108.3558 230° Southwest 452 520 34,000  Level Denver Center
Sun 06:11:08 PM 38.1003 -108.4953 230° Southwest 455 524 34,000  Level Denver Center
Sun 06:12:10 PM 38.0194 -108.6153 229° Southwest 451 519 34,000  Level Denver Center
Sun 06:13:12 PM 37.9417 -108.7325 230° Southwest 452 520 34,000  Level Denver Center
Sun 06:14:14 PM 37.8503 -108.8700 230° Southwest 457 526 34,000  Level Denver Center
Sun 06:15:16 PM 37.7822 -108.9925 235° Southwest 454 522 34,000  Level Denver Center
Sun 06:16:18 PM 37.7131 -109.1478 241° Southwest 455 524 34,000  Level Denver Center
Sun 06:17:19 PM 37.6542 -109.2797 241° Southwest 453 521 34,000  Level Denver Center
Sun 06:18:21 PM 37.5856 -109.4331 241° Southwest 451 519 34,000  Level Denver Center
Sun 06:19:23 PM 37.5264 -109.5642 240° Southwest 450 518 34,000  Level Denver Center
Sun 06:20:25 PM 37.4564 -109.7189 240° Southwest 455 524 34,000  Level Denver Center
Sun 06:21:27 PM 37.3967 -109.8519 241° Southwest 457 526 34,000  Level Denver Center
Sun 06:22:28 PM 37.3272 -110.0042 240° Southwest 453 521 34,000  Level Denver Center
Sun 06:23:30 PM 37.2672 -110.1361 240° Southwest 454 522 34,000  Level Denver Center
Sun 06:24:33 PM 37.2019 -110.2758 240° Southwest 457 526 34,000  Level Denver Center
Sun 06:25:34 PM 37.1406 -110.4131 241° Southwest 454 522 34,000  Level Denver Center
Sun 06:26:36 PM 37.0767 -110.5508 240° Southwest 455 524 34,000  Level Denver Center
Sun 06:27:38 PM 37.0122 -110.6889 240° Southwest 458 527 34,000  Level Denver Center
Sun 06:28:40 PM 36.9336 -110.8547 239° Southwest 461 531 34,000  Level Denver Center
Sun 06:29:42 PM 36.8686 -110.9939 240° Southwest 463 533 34,000  Level Denver Center
Sun 06:30:43 PM 36.8042 -111.1314 240° Southwest 461 531 34,000  Level Denver Center
Sun 06:31:45 PM 36.7392 -111.2678 239° Southwest 459 528 34,000  Level Denver Center
Sun 06:32:47 PM 36.6722 -111.4069 239° Southwest 463 533 34,000  Level Denver Center
Sun 06:33:49 PM 36.6094 -111.5456 241° Southwest 461 531 34,000  Level Denver Center
Sun 06:34:51 PM 36.5506 -111.6875 243° Southwest 462 532 34,000  Level Denver Center
Sun 06:35:53 PM 36.4789 -111.8575 242° Southwest 461 531 34,000  Level Denver Center
Sun 06:37:04 PM 36.4200 -111.9994 243° Southwest 465 535 34,000  Level Los Angeles Center
Sun 06:38:06 PM 36.3481 -112.1703 242° Southwest 466 536 34,000  Level Los Angeles Center
Sun 06:39:20 PM 36.2878 -112.3108 242° Southwest 462 532 34,000  Level Los Angeles Center
Sun 06:40:23 PM 36.2164 -112.4817 243° Southwest 465 535 34,000  Level Los Angeles Center
Sun 06:41:25 PM 36.1564 -112.6228 242° Southwest 464 534 34,000  Level Los Angeles Center
Sun 06:42:27 PM 36.0958 -112.7644 242° Southwest 465 535 34,000  Level Los Angeles Center
Sun 06:43:29 PM 36.0342 -112.9064 242° Southwest 468 539 34,000  Level Los Angeles Center
Sun 06:44:31 PM 35.9736 -113.0483 242° Southwest 466 536 34,000  Level Los Angeles Center
Sun 06:45:33 PM 35.9167 -113.2053 246° West 466 536 34,000  Level Los Angeles Center
Sun 06:46:35 PM 35.9036 -113.3936 265° West 466 536 34,000  Level Los Angeles Center
Sun 06:47:37 PM 35.8456 -113.5339 243° Southwest 464 534 34,000  Level Los Angeles Center
Sun 06:48:39 PM 35.7800 -113.6753 240° Southwest 465 535 34,000  Level Los Angeles Center
Sun 06:49:42 PM 35.7153 -113.8150 240° Southwest 469 540 34,000  Level Los Angeles Center
Sun 06:50:44 PM 35.6542 -113.9469 240° Southwest 470 541 34,000  Level Los Angeles Center
Sun 06:51:46 PM 35.5764 -114.1114 240° Southwest 468 539 34,000  Level Los Angeles Center
Sun 06:52:48 PM 35.5056 -114.2597 240° Southwest 470 541 34,000  Level Los Angeles Center
Sun 06:53:50 PM 35.4414 -114.3964 240° Southwest 466 536 34,000  Level Los Angeles Center
Sun 06:54:52 PM 35.3764 -114.5364 240° Southwest 472 543 34,000  Level Los Angeles Center
Sun 06:55:53 PM 35.3219 -114.6475 239° Southwest 473 544 34,000  Level Los Angeles Center
Sun 06:56:56 PM 35.2425 -114.8139 240° Southwest 469 540 34,000  Level Los Angeles Center
Sun 06:57:58 PM 35.1761 -114.9531 240° Southwest 469 540 34,000  Level Los Angeles Center
Sun 06:59:00 PM 35.1097 -115.0922 240° Southwest 471 542 34,000  Level Los Angeles Center
Sun 07:00:02 PM 35.0283 -115.2592 239° Southwest 475 547 34,000  Level Los Angeles Center
Sun 07:01:04 PM 34.9725 -115.3736 239° Southwest 473 544 34,000  Level Los Angeles Center
Sun 07:02:06 PM 34.8944 -115.5342 239° Southwest 469 540 34,000  Level Los Angeles Center
Sun 07:03:08 PM 34.8389 -115.6492 240° Southwest 474 545 34,000  Level Los Angeles Center
Sun 07:04:11 PM 34.7578 -115.8136 239° Southwest 474 545 34,000 -240 Level Los Angeles Center
Sun 07:05:13 PM 34.6900 -115.9508 239° Southwest 474 545 33,500 -1,161 Descending Los Angeles Center
Sun 07:06:15 PM 34.6228 -116.0869 239° Southwest 472 543 31,600 -1,839 Descending Los Angeles Center
Sun 07:07:17 PM 34.5556 -116.2231 239° Southwest 470 541 29,700 -1,887 Descending Los Angeles Center
Sun 07:08:19 PM 34.4756 -116.3817 239° Southwest 462 532 27,700 -1,306 Descending Los Angeles Center
Sun 07:09:21 PM 34.4106 -116.5100 238° Southwest 452 520 27,000 -532 Descending Los Angeles Center
Sun 07:10:23 PM 34.3475 -116.6367 239° Southwest 441 507 26,600 -1,355 Descending Los Angeles Center
Sun 07:11:25 PM 34.2811 -116.7664 238° Southwest 449 517 24,200 -2,118 Descending Los Angeles Center
Sun 07:12:39 PM 34.2136 -116.8975 238° Southwest 457 526 21,800 -2,245 Descending Los Angeles Center
Sun 07:13:44 PM 34.1167 -117.0833 238° Southwest 414 476 19,000 -1,968 Descending Southern California TRACON
Sun 07:14:44 PM 34.0667 -117.1833 239° Southwest 374 430 17,700 -1,537 Descending Southern California TRACON
Sun 07:15:45 PM 34.0500 -117.3167 261° West 372 428 15,900 -1,785 Descending Southern California TRACON
Sun 07:16:45 PM 34.0333 -117.4167 259° West 355 409 14,100 -1,800 Descending Southern California TRACON
Sun 07:17:45 PM 34.0167 -117.5333 260° West 342 394 12,300 -1,450 Descending Southern California TRACON
Sun 07:18:45 PM 34.0167 -117.6333 270° West 298 343 11,200 -1,250 Descending Southern California TRACON
Sun 07:19:45 PM 34.0000 -117.7333 259° West 296 341 9,800 -1,421 Descending Southern California TRACON
Sun 07:20:39 PM 34.0000 -117.8333 270° West 289 333 8,500 -1,316 Descending Southern California TRACON
Sun 07:21:39 PM 33.9833 -117.9167 256° West 278 320 7,300 -1,250 Descending Southern California TRACON
Sun 07:22:39 PM 33.9667 -118.0167 259° West 279 321 6,000 -1,190 Descending Southern California TRACON
Sun 07:23:40 PM 33.9667 -118.1000 270° West 256 295 4,900 -1,071 Descending Southern California TRACON
Sun 07:24:03 PM 33.9625 -118.1333 261° West 263 303 4,500 -1,129 Descending Los Angeles Center
Sun 07:25:05 PM 33.9561 -118.2086 264° West 238 274 3,300 -1,161 Descending Los Angeles Center

Login

Don't have an account? Register now (free) for customized features, flight alerts, and more!